Time;durP1;ratioP1;P1;durP2;ratioP2;P2;SDS_P1;SDS_P2;PMS_P1;PMS_P2;Temp;Humidity;BMP_temperature;BMP_pressure;BME280_temperature;BME280_humidity;BME280_pressure;Samples;Min_cycle;Max_cycle;Signal;HPM_P1;HPM_P2
2023/12/31 00:00:23;;;;;;;5.95;3.42;;;;;;;;;;5046636;28;20075;-76
2023/12/31 00:02:49;;;;;;;7.65;3.35;;;;;;;;;;5046425;28;20048;-75
2023/12/31 00:05:16;;;;;;;8.45;3.08;;;;;;;;;;5029302;28;20470;-75
2023/12/31 00:07:42;;;;;;;8.40;3.58;;;;;;;;;;5045837;28;20116;-75
2023/12/31 00:10:09;;;;;;;5.45;3.75;;;;;;;;;;5044621;28;20169;-75
2023/12/31 00:12:35;;;;;;;7.68;3.38;;;;;;;;;;5045907;28;20051;-75
2023/12/31 00:15:01;;;;;;;6.32;3.80;;;;;;;;;;5028711;28;20039;-74
2023/12/31 00:17:27;;;;;;;6.53;2.90;;;;;;;;;;5046299;28;20029;-75
2023/12/31 00:19:53;;;;;;;6.82;3.35;;;;;;;;;;5044743;28;20512;-75
2023/12/31 00:22:19;;;;;;;10.48;2.70;;;;;;;;;;5044584;28;20094;-74
2023/12/31 00:24:45;;;;;;;4.45;2.58;;;;;;;;;;5027060;28;20029;-75
2023/12/31 00:27:11;;;;;;;4.90;2.63;;;;;;;;;;5044288;28;20075;-76
2023/12/31 00:29:38;;;;;;;5.80;2.92;;;;;;;;;;5044716;28;20049;-75
2023/12/31 00:32:04;;;;;;;3.95;2.65;;;;;;;;;;5044858;28;20482;-75
2023/12/31 00:34:30;;;;;;;4.55;2.90;;;;;;;;;;5045114;28;20111;-76
2023/12/31 00:36:57;;;;;;;7.18;3.28;;;;;;;;;;5028546;28;20052;-76
2023/12/31 00:39:26;;;;;;;8.48;2.90;;;;;;;;;;5028290;28;20055;-76
2023/12/31 00:41:52;;;;;;;4.68;2.63;;;;;;;;;;5046254;28;20040;-75
2023/12/31 00:44:18;;;;;;;6.80;3.60;;;;;;;;;;5044996;28;20130;-74
2023/12/31 00:46:44;;;;;;;4.38;2.70;;;;;;;;;;5045993;28;20029;-73
2023/12/31 00:49:11;;;;;;;6.78;2.83;;;;;;;;;;5027934;28;20105;-74
2023/12/31 00:51:37;;;;;;;4.75;2.50;;;;;;;;;;5046695;28;20028;-75
2023/12/31 00:54:03;;;;;;;8.20;2.17;;;;;;;;;;5044970;28;20028;-76
2023/12/31 00:56:29;;;;;;;4.13;2.05;;;;;;;;;;5046622;28;20033;-75
2023/12/31 00:58:55;;;;;;;7.65;2.47;;;;;;;;;;5045818;28;20741;-75
2023/12/31 01:01:22;;;;;;;3.45;2.10;;;;;;;;;;5045159;28;20090;-75
2023/12/31 01:03:51;;;;;;;5.95;2.20;;;;;;;;;;5045316;28;20033;-75
2023/12/31 01:06:17;;;;;;;5.30;2.28;;;;;;;;;;5046405;28;20039;-75
2023/12/31 01:08:43;;;;;;;5.20;2.38;;;;;;;;;;5046092;28;20055;-76
2023/12/31 01:11:09;;;;;;;6.15;2.22;;;;;;;;;;5028868;28;20086;-76
2023/12/31 01:13:35;;;;;;;5.22;1.98;;;;;;;;;;5028894;28;20048;-76
2023/12/31 01:16:01;;;;;;;6.78;2.05;;;;;;;;;;5044084;28;20128;-75
2023/12/31 01:18:28;;;;;;;8.07;2.35;;;;;;;;;;5044670;28;20052;-76
2023/12/31 01:20:54;;;;;;;5.45;2.03;;;;;;;;;;5044659;28;20032;-77
2023/12/31 01:23:20;;;;;;;4.50;1.95;;;;;;;;;;5060180;28;20037;-76
2023/12/31 01:25:47;;;;;;;3.55;2.10;;;;;;;;;;5045524;28;20105;-76
2023/12/31 01:28:13;;;;;;;5.55;1.77;;;;;;;;;;5045982;28;20040;-76
2023/12/31 01:30:40;;;;;;;6.32;1.90;;;;;;;;;;5043696;28;20041;-75
2023/12/31 01:33:06;;;;;;;3.72;1.90;;;;;;;;;;5043761;28;20064;-76
2023/12/31 01:35:34;;;;;;;3.42;1.70;;;;;;;;;;5044160;28;20103;-76
2023/12/31 01:38:00;;;;;;;5.25;1.90;;;;;;;;;;5044140;28;20078;-76
2023/12/31 01:40:27;;;;;;;8.07;2.15;;;;;;;;;;5049462;28;20112;-75
2023/12/31 01:42:53;;;;;;;4.38;1.90;;;;;;;;;;5051239;28;20017;-76
2023/12/31 01:45:19;;;;;;;8.68;1.98;;;;;;;;;;5051671;28;20468;-75
2023/12/31 01:47:46;;;;;;;6.63;1.58;;;;;;;;;;5049471;28;20025;-75
2023/12/31 01:50:14;;;;;;;5.68;1.92;;;;;;;;;;5049616;28;20037;-76
2023/12/31 01:52:41;;;;;;;6.32;1.90;;;;;;;;;;5052406;28;20024;-75
2023/12/31 01:55:08;;;;;;;13.30;2.10;;;;;;;;;;5051726;28;20040;-76
2023/12/31 01:57:35;;;;;;;9.48;2.55;;;;;;;;;;5050919;28;20106;-76
2023/12/31 02:00:04;;;;;;;5.93;1.90;;;;;;;;;;5051119;28;20299;-75
2023/12/31 02:02:38;;;;;;;4.15;1.73;;;;;;;;;;5051866;28;20571;-73
2023/12/31 02:05:05;;;;;;;4.18;1.80;;;;;;;;;;5048037;28;20040;-75
2023/12/31 02:07:31;;;;;;;4.13;1.70;;;;;;;;;;5049585;28;20035;-76
2023/12/31 02:09:58;;;;;;;6.38;2.13;;;;;;;;;;5049917;28;20071;-75
2023/12/31 02:12:24;;;;;;;3.78;2.10;;;;;;;;;;5049699;28;20139;-75
2023/12/31 02:14:50;;;;;;;4.72;1.98;;;;;;;;;;5049471;28;20025;-76
2023/12/31 02:17:16;;;;;;;10.50;2.20;;;;;;;;;;5048874;28;20041;-75
2023/12/31 02:19:42;;;;;;;4.22;1.98;;;;;;;;;;5049644;28;20292;-76
2023/12/31 02:22:09;;;;;;;4.78;2.03;;;;;;;;;;5051737;28;20025;-75
2023/12/31 02:24:45;;;;;;;3.65;1.63;;;;;;;;;;5050948;28;20060;-76
2023/12/31 02:27:11;;;;;;;6.00;1.98;;;;;;;;;;5049433;28;20303;-75
2023/12/31 02:29:37;;;;;;;5.68;2.00;;;;;;;;;;5050374;28;20029;-76
2023/12/31 02:32:03;;;;;;;3.97;1.70;;;;;;;;;;5051513;28;20056;-76
2023/12/31 02:34:31;;;;;;;4.63;1.92;;;;;;;;;;5049548;28;20048;-73
2023/12/31 02:36:57;;;;;;;6.95;1.80;;;;;;;;;;5050830;28;20049;-75
2023/12/31 02:39:24;;;;;;;7.72;2.42;;;;;;;;;;5048611;28;20090;-76
2023/12/31 02:41:50;;;;;;;5.75;2.30;;;;;;;;;;5050676;28;20021;-75
2023/12/31 02:44:16;;;;;;;2.45;1.50;;;;;;;;;;5049281;28;20098;-74
2023/12/31 02:46:42;;;;;;;5.50;1.70;;;;;;;;;;5050187;28;21147;-75
2023/12/31 02:49:11;;;;;;;5.10;1.80;;;;;;;;;;5050989;28;20041;-75
2023/12/31 02:51:37;;;;;;;5.00;2.05;;;;;;;;;;5048549;28;20114;-75
2023/12/31 02:54:04;;;;;;;3.58;1.80;;;;;;;;;;5056409;28;20029;-74
2023/12/31 02:56:30;;;;;;;4.68;1.70;;;;;;;;;;5050948;28;20111;-75
2023/12/31 02:58:56;;;;;;;4.68;1.80;;;;;;;;;;5051093;28;20040;-75
2023/12/31 03:01:22;;;;;;;5.75;1.83;;;;;;;;;;5031671;28;20055;-75
2023/12/31 03:03:48;;;;;;;4.97;1.60;;;;;;;;;;5047816;28;20561;-75
2023/12/31 03:06:15;;;;;;;4.03;1.65;;;;;;;;;;5048736;28;20065;-75
2023/12/31 03:08:41;;;;;;;5.82;2.42;;;;;;;;;;5048103;28;20056;-75
2023/12/31 03:11:08;;;;;;;3.35;1.73;;;;;;;;;;5049078;28;20104;-75
2023/12/31 03:13:34;;;;;;;5.07;1.90;;;;;;;;;;5045925;28;20037;-75
2023/12/31 03:16:05;;;;;;;5.28;2.47;;;;;;;;;;5063413;28;20040;-75
2023/12/31 03:18:33;;;;;;;6.47;1.85;;;;;;;;;;5031674;28;20045;-75
2023/12/31 03:21:00;;;;;;;4.13;2.05;;;;;;;;;;5048741;28;20568;-75
2023/12/31 03:23:26;;;;;;;4.35;2.10;;;;;;;;;;5045658;28;20032;-76
2023/12/31 03:25:52;;;;;;;4.45;2.08;;;;;;;;;;5049405;28;20025;-75
2023/12/31 03:28:18;;;;;;;3.10;1.90;;;;;;;;;;5049863;28;20029;-75
2023/12/31 03:30:46;;;;;;;6.70;2.22;;;;;;;;;;5049026;28;20092;-75
2023/12/31 03:33:12;;;;;;;3.88;1.70;;;;;;;;;;5047367;28;20048;-75
2023/12/31 03:35:38;;;;;;;4.53;2.00;;;;;;;;;;5049954;28;20055;-75
2023/12/31 03:38:04;;;;;;;6.43;2.10;;;;;;;;;;5048064;28;20021;-74
2023/12/31 03:40:31;;;;;;;6.82;1.80;;;;;;;;;;5047449;28;20454;-75
2023/12/31 03:42:57;;;;;;;5.22;2.28;;;;;;;;;;5049810;28;20359;-75
2023/12/31 03:45:23;;;;;;;4.57;1.80;;;;;;;;;;5048814;28;20397;-75
2023/12/31 03:47:49;;;;;;;5.45;3.05;;;;;;;;;;5050350;28;20104;-75
2023/12/31 03:50:16;;;;;;;4.85;2.08;;;;;;;;;;5047738;28;20595;-76
2023/12/31 03:52:42;;;;;;;5.10;2.20;;;;;;;;;;5046393;28;20033;-75
2023/12/31 03:55:09;;;;;;;3.35;1.90;;;;;;;;;;5054076;28;20029;-75
2023/12/31 03:57:35;;;;;;;6.13;2.28;;;;;;;;;;5048458;28;20033;-74
2023/12/31 04:00:03;;;;;;;4.60;2.90;;;;;;;;;;5047965;28;20486;-75
2023/12/31 04:02:31;;;;;;;5.45;2.10;;;;;;;;;;5042060;28;20347;-74
2023/12/31 04:04:57;;;;;;;5.53;2.30;;;;;;;;;;5048802;28;20116;-76
2023/12/31 04:07:23;;;;;;;4.18;2.30;;;;;;;;;;5047218;28;20033;-74
2023/12/31 04:09:50;;;;;;;4.93;2.28;;;;;;;;;;5063451;28;20055;-75
2023/12/31 04:12:16;;;;;;;4.65;2.40;;;;;;;;;;5047278;28;20038;-76
2023/12/31 04:14:42;;;;;;;3.72;2.13;;;;;;;;;;5049498;28;20048;-76
2023/12/31 04:17:08;;;;;;;3.80;2.42;;;;;;;;;;5045676;28;20033;-75
2023/12/31 04:19:34;;;;;;;5.57;2.47;;;;;;;;;;5046701;28;20033;-75
2023/12/31 04:22:00;;;;;;;3.50;2.10;;;;;;;;;;5047002;28;20021;-76
2023/12/31 04:24:27;;;;;;;5.88;2.50;;;;;;;;;;5049011;28;20120;-74
2023/12/31 04:26:53;;;;;;;4.80;2.40;;;;;;;;;;5048501;28;20098;-76
2023/12/31 04:29:19;;;;;;;4.43;2.53;;;;;;;;;;5047778;28;20031;-74
2023/12/31 04:31:47;;;;;;;4.15;2.42;;;;;;;;;;5047013;28;20127;-76
2023/12/31 04:34:13;;;;;;;4.80;2.40;;;;;;;;;;5048712;28;20041;-74
2023/12/31 04:36:46;;;;;;;4.28;2.30;;;;;;;;;;5047755;28;20053;-76
2023/12/31 04:39:12;;;;;;;6.95;2.40;;;;;;;;;;5060578;28;20440;-76
2023/12/31 04:41:38;;;;;;;4.75;2.75;;;;;;;;;;5048192;28;20048;-73
2023/12/31 04:44:04;;;;;;;4.53;3.13;;;;;;;;;;5046296;28;20032;-75
2023/12/31 04:46:31;;;;;;;5.68;2.33;;;;;;;;;;5047360;28;20025;-74
2023/12/31 04:48:57;;;;;;;3.17;2.40;;;;;;;;;;5047460;28;20040;-74
2023/12/31 04:51:24;;;;;;;5.97;2.50;;;;;;;;;;5029845;28;20037;-74
2023/12/31 04:53:50;;;;;;;6.00;2.40;;;;;;;;;;5041177;28;20040;-75
2023/12/31 04:56:23;;;;;;;7.55;2.55;;;;;;;;;;5047001;28;20204;-74
2023/12/31 04:58:50;;;;;;;5.45;2.10;;;;;;;;;;5048356;28;20028;-76
2023/12/31 05:01:16;;;;;;;3.10;2.30;;;;;;;;;;5044326;28;20116;-75
2023/12/31 05:03:44;;;;;;;6.45;2.88;;;;;;;;;;5048748;28;20123;-75
2023/12/31 05:06:11;;;;;;;5.30;2.40;;;;;;;;;;5047062;28;20021;-76
2023/12/31 05:08:37;;;;;;;4.25;2.67;;;;;;;;;;5047102;28;20045;-75
2023/12/31 05:11:03;;;;;;;5.95;2.30;;;;;;;;;;5047219;28;20116;-76
2023/12/31 05:13:29;;;;;;;3.38;2.13;;;;;;;;;;5045634;28;20075;-76
2023/12/31 05:15:55;;;;;;;7.97;2.55;;;;;;;;;;5047586;28;20032;-76
2023/12/31 05:18:22;;;;;;;4.28;2.30;;;;;;;;;;5045803;28;20091;-76
2023/12/31 05:20:51;;;;;;;5.60;2.40;;;;;;;;;;5047592;28;20036;-75
2023/12/31 05:23:17;;;;;;;7.32;2.67;;;;;;;;;;5047852;28;20029;-74
2023/12/31 05:25:43;;;;;;;6.03;2.85;;;;;;;;;;5047022;28;20041;-75
2023/12/31 05:28:09;;;;;;;7.30;2.88;;;;;;;;;;5047320;28;20405;-75
2023/12/31 05:30:35;;;;;;;4.93;2.45;;;;;;;;;;5046872;28;20048;-75
2023/12/31 05:33:02;;;;;;;3.42;2.40;;;;;;;;;;5047382;28;20574;-75
2023/12/31 05:35:29;;;;;;;8.27;2.95;;;;;;;;;;5046466;28;20040;-76
2023/12/31 05:37:55;;;;;;;3.97;2.35;;;;;;;;;;5047916;28;20111;-76
2023/12/31 05:40:21;;;;;;;4.22;2.63;;;;;;;;;;5047215;28;20025;-75
2023/12/31 05:42:47;;;;;;;4.60;2.70;;;;;;;;;;5046239;28;20036;-75
2023/12/31 05:45:13;;;;;;;4.82;2.70;;;;;;;;;;5044667;28;20037;-75
2023/12/31 05:47:39;;;;;;;6.10;3.13;;;;;;;;;;5046094;28;20328;-75
2023/12/31 05:50:06;;;;;;;7.80;2.67;;;;;;;;;;5044464;28;20033;-76
2023/12/31 05:52:32;;;;;;;5.07;3.00;;;;;;;;;;5043457;28;20112;-76
2023/12/31 05:54:58;;;;;;;6.28;3.10;;;;;;;;;;5044493;28;20041;-76
2023/12/31 05:57:24;;;;;;;6.10;3.28;;;;;;;;;;5027405;28;20555;-76
2023/12/31 05:59:50;;;;;;;5.53;2.95;;;;;;;;;;5047013;28;20072;-75
2023/12/31 06:02:16;;;;;;;5.00;2.90;;;;;;;;;;5046059;28;20504;-75
2023/12/31 06:04:42;;;;;;;7.10;3.20;;;;;;;;;;5044334;28;20518;-75
2023/12/31 06:07:09;;;;;;;6.05;3.00;;;;;;;;;;5046325;28;20025;-75
2023/12/31 06:09:35;;;;;;;6.25;3.15;;;;;;;;;;5046540;28;20458;-75
2023/12/31 06:12:01;;;;;;;5.93;3.35;;;;;;;;;;5027369;28;20033;-76
2023/12/31 06:14:27;;;;;;;5.60;3.60;;;;;;;;;;5027056;28;20329;-76
2023/12/31 06:16:53;;;;;;;5.80;3.40;;;;;;;;;;5044251;28;20037;-76
2023/12/31 06:19:20;;;;;;;5.60;3.45;;;;;;;;;;5044137;28;20025;-75
2023/12/31 06:21:46;;;;;;;9.88;3.20;;;;;;;;;;5043990;28;20568;-75
2023/12/31 06:24:12;;;;;;;4.35;3.28;;;;;;;;;;5044415;28;20033;-76
2023/12/31 06:26:38;;;;;;;6.05;3.30;;;;;;;;;;5048343;28;20055;-75
2023/12/31 06:29:04;;;;;;;4.75;3.30;;;;;;;;;;5052419;28;20060;-75
2023/12/31 06:31:30;;;;;;;4.30;3.35;;;;;;;;;;5036022;28;20045;-74
2023/12/31 06:33:57;;;;;;;5.50;3.13;;;;;;;;;;5054571;28;20151;-75
2023/12/31 06:36:26;;;;;;;5.75;3.05;;;;;;;;;;5050005;28;20045;-75
2023/12/31 06:38:55;;;;;;;7.15;3.30;;;;;;;;;;5050885;28;20052;-75
2023/12/31 06:41:21;;;;;;;5.40;3.05;;;;;;;;;;5049972;28;20037;-75
2023/12/31 06:43:47;;;;;;;4.88;3.55;;;;;;;;;;5050405;28;20033;-76
2023/12/31 06:46:14;;;;;;;5.55;3.47;;;;;;;;;;5050141;28;20041;-77
2023/12/31 06:48:40;;;;;;;6.10;3.20;;;;;;;;;;5050292;28;20029;-75
2023/12/31 06:51:07;;;;;;;6.88;3.55;;;;;;;;;;5048799;28;20040;-75
2023/12/31 06:53:33;;;;;;;6.00;3.45;;;;;;;;;;5046487;28;20079;-75
2023/12/31 06:56:06;;;;;;;5.38;3.28;;;;;;;;;;5047416;28;20093;-75
2023/12/31 06:58:33;;;;;;;6.93;3.85;;;;;;;;;;5065624;28;20218;-76
2023/12/31 07:01:00;;;;;;;7.07;3.08;;;;;;;;;;5049570;28;20021;-75
2023/12/31 07:03:26;;;;;;;5.90;3.30;;;;;;;;;;5049610;28;20021;-75
2023/12/31 07:05:52;;;;;;;5.60;3.78;;;;;;;;;;5051994;28;20043;-74
2023/12/31 07:08:18;;;;;;;5.57;3.67;;;;;;;;;;5033248;28;20029;-75
2023/12/31 07:10:44;;;;;;;4.93;3.60;;;;;;;;;;5050416;28;20116;-75
2023/12/31 07:13:10;;;;;;;7.82;3.45;;;;;;;;;;5048594;28;20033;-75
2023/12/31 07:15:37;;;;;;;7.47;3.67;;;;;;;;;;5048903;28;20432;-75
2023/12/31 07:18:03;;;;;;;5.90;3.70;;;;;;;;;;5049316;28;20656;-75
2023/12/31 07:20:29;;;;;;;4.80;3.72;;;;;;;;;;5050588;28;20033;-76
2023/12/31 07:22:55;;;;;;;6.00;3.60;;;;;;;;;;5048001;28;20029;-75
2023/12/31 07:25:28;;;;;;;4.88;3.50;;;;;;;;;;5047886;28;20573;-75
2023/12/31 07:27:54;;;;;;;4.22;3.30;;;;;;;;;;5046392;28;20025;-75
2023/12/31 07:30:20;;;;;;;4.13;3.38;;;;;;;;;;5046428;28;20087;-75
2023/12/31 07:32:46;;;;;;;5.45;3.67;;;;;;;;;;5046856;28;20061;-75
2023/12/31 07:35:13;;;;;;;10.40;3.72;;;;;;;;;;5030442;28;20087;-75
2023/12/31 07:37:39;;;;;;;8.85;3.95;;;;;;;;;;5046525;28;20029;-75
2023/12/31 07:40:09;;;;;;;4.95;4.03;;;;;;;;;;5047296;28;20071;-75
2023/12/31 07:42:40;;;;;;;5.43;3.92;;;;;;;;;;5048065;28;20029;-75
2023/12/31 07:45:06;;;;;;;6.72;4.18;;;;;;;;;;5045073;28;20028;-77
2023/12/31 07:47:35;;;;;;;7.40;4.55;;;;;;;;;;5045963;28;20052;-76
2023/12/31 07:50:04;;;;;;;6.70;4.00;;;;;;;;;;5047188;28;20032;-76
2023/12/31 07:52:31;;;;;;;7.85;4.45;;;;;;;;;;5049018;28;20044;-76
2023/12/31 07:54:57;;;;;;;6.75;4.03;;;;;;;;;;5049569;28;20397;-77
2023/12/31 07:57:26;;;;;;;6.20;4.07;;;;;;;;;;5048160;28;20063;-77
2023/12/31 07:59:55;;;;;;;7.57;4.65;;;;;;;;;;5047040;28;20056;-75
2023/12/31 08:02:21;;;;;;;5.82;3.85;;;;;;;;;;5048194;28;20063;-75
2023/12/31 08:04:47;;;;;;;6.03;3.92;;;;;;;;;;5030046;28;20033;-75
2023/12/31 08:07:13;;;;;;;8.63;4.45;;;;;;;;;;5047824;28;20524;-76
2023/12/31 08:09:39;;;;;;;5.68;4.00;;;;;;;;;;5047018;28;20035;-76
2023/12/31 08:12:06;;;;;;;5.47;4.00;;;;;;;;;;5048449;28;20037;-76
2023/12/31 08:14:32;;;;;;;8.75;5.10;;;;;;;;;;5047311;28;20076;-74
2023/12/31 08:16:58;;;;;;;6.88;4.07;;;;;;;;;;5047503;28;20083;-75
2023/12/31 08:19:24;;;;;;;8.27;4.43;;;;;;;;;;5031548;28;20044;-76
2023/12/31 08:21:50;;;;;;;5.43;4.03;;;;;;;;;;5049244;28;20023;-76
2023/12/31 08:24:20;;;;;;;6.25;4.03;;;;;;;;;;5047138;28;20033;-75
2023/12/31 08:26:46;;;;;;;9.25;3.97;;;;;;;;;;5032927;28;20025;-75
2023/12/31 08:29:12;;;;;;;7.18;3.70;;;;;;;;;;5052105;28;20049;-75
2023/12/31 08:31:38;;;;;;;5.45;4.10;;;;;;;;;;5047232;28;20077;-76
2023/12/31 08:34:04;;;;;;;5.63;3.95;;;;;;;;;;5047159;28;20937;-75
2023/12/31 08:36:31;;;;;;;5.50;3.97;;;;;;;;;;5046122;28;20029;-76
2023/12/31 08:38:57;;;;;;;4.72;3.75;;;;;;;;;;5047016;28;20029;-76
2023/12/31 08:41:27;;;;;;;5.88;3.80;;;;;;;;;;5047693;28;20064;-75
2023/12/31 08:43:53;;;;;;;6.03;4.10;;;;;;;;;;5047964;28;20106;-78
2023/12/31 08:46:19;;;;;;;7.45;4.18;;;;;;;;;;5028434;28;20075;-76
2023/12/31 08:48:46;;;;;;;5.75;3.88;;;;;;;;;;5046386;28;20072;-76
2023/12/31 08:51:13;;;;;;;7.40;4.90;;;;;;;;;;5041420;28;20033;-75
2023/12/31 08:53:39;;;;;;;8.85;4.68;;;;;;;;;;5042141;28;20037;-77
2023/12/31 08:56:05;;;;;;;7.10;5.03;;;;;;;;;;5038908;28;20048;-76
2023/12/31 08:58:31;;;;;;;5.88;4.20;;;;;;;;;;5050205;28;20033;-76
2023/12/31 09:00:58;;;;;;;5.88;4.32;;;;;;;;;;5030160;28;20033;-76
2023/12/31 09:03:24;;;;;;;7.28;4.43;;;;;;;;;;5046058;28;20085;-76
2023/12/31 09:05:50;;;;;;;8.30;4.40;;;;;;;;;;5044709;28;20052;-76
2023/12/31 09:08:16;;;;;;;5.97;4.18;;;;;;;;;;5029326;28;20074;-76
2023/12/31 09:10:42;;;;;;;7.68;4.07;;;;;;;;;;5045774;28;20029;-75
2023/12/31 09:13:09;;;;;;;6.03;3.03;;;;;;;;;;5040797;28;20040;-76
2023/12/31 09:15:36;;;;;;;9.60;1.75;;;;;;;;;;5042350;28;20036;-76
2023/12/31 09:18:02;;;;;;;3.08;1.00;;;;;;;;;;5045405;28;20033;-75
2023/12/31 09:20:28;;;;;;;5.25;1.40;;;;;;;;;;5046651;28;20028;-77
2023/12/31 09:22:55;;;;;;;4.63;1.50;;;;;;;;;;5046072;28;20175;-77
2023/12/31 09:25:21;;;;;;;5.65;1.73;;;;;;;;;;5047239;28;20029;-77
2023/12/31 09:27:48;;;;;;;5.53;1.80;;;;;;;;;;5044191;28;20415;-76
2023/12/31 09:30:15;;;;;;;5.90;1.77;;;;;;;;;;5047961;28;20049;-76
2023/12/31 09:32:42;;;;;;;6.95;1.60;;;;;;;;;;5044512;28;20037;-76
2023/12/31 09:35:08;;;;;;;3.90;1.50;;;;;;;;;;5045121;28;20033;-75
2023/12/31 09:37:34;;;;;;;3.67;1.27;;;;;;;;;;5046124;28;20055;-76
2023/12/31 09:40:00;;;;;;;5.10;1.30;;;;;;;;;;5043522;28;20055;-77
2023/12/31 09:42:39;;;;;;;2.28;1.20;;;;;;;;;;5027463;28;20054;-76
2023/12/31 09:45:07;;;;;;;2.83;1.08;;;;;;;;;;5025008;28;20017;-76
2023/12/31 09:47:34;;;;;;;4.00;1.40;;;;;;;;;;5025070;28;20156;-76
2023/12/31 09:50:01;;;;;;;2.17;1.15;;;;;;;;;;5007419;28;20044;-76
2023/12/31 09:52:30;;;;;;;4.47;1.35;;;;;;;;;;5023360;28;20155;-75
2023/12/31 09:54:57;;;;;;;3.10;1.10;;;;;;;;;;5030778;28;20033;-75
2023/12/31 09:57:24;;;;;;;3.42;1.15;;;;;;;;;;5009719;28;20121;-77
2023/12/31 09:59:51;;;;;;;5.15;1.40;;;;;;;;;;5056726;28;20048;-77
2023/12/31 10:02:26;;;;;;;2.28;1.30;;;;;;;;;;5029827;28;20033;-76
2023/12/31 10:04:52;;;;;;;4.40;1.30;;;;;;;;;;5030568;28;20039;-77
2023/12/31 10:07:20;;;;;;;2.58;1.00;;;;;;;;;;5028658;28;20032;-76
2023/12/31 10:09:47;;;;;;;5.88;1.40;;;;;;;;;;5029303;28;20072;-75
2023/12/31 10:12:14;;;;;;;3.45;1.20;;;;;;;;;;5030134;28;20053;-76
2023/12/31 10:14:40;;;;;;;3.58;1.50;;;;;;;;;;5029699;28;20036;-76
2023/12/31 10:17:09;;;;;;;3.35;1.77;;;;;;;;;;5030600;28;20025;-77
2023/12/31 10:19:36;;;;;;;4.70;1.75;;;;;;;;;;5029657;28;20099;-76
2023/12/31 10:22:05;;;;;;;4.53;1.98;;;;;;;;;;5028328;28;20052;-75
2023/12/31 10:24:31;;;;;;;4.32;1.80;;;;;;;;;;5027034;28;20060;-76
2023/12/31 10:26:57;;;;;;;4.57;1.90;;;;;;;;;;5030830;28;20103;-76
2023/12/31 10:29:24;;;;;;;3.90;1.95;;;;;;;;;;5029106;28;20030;-79
2023/12/31 10:31:52;;;;;;;3.97;1.80;;;;;;;;;;5026234;28;20099;-76
2023/12/31 10:34:18;;;;;;;3.13;1.75;;;;;;;;;;5030023;28;20479;-75
2023/12/31 10:36:45;;;;;;;4.18;1.70;;;;;;;;;;5034241;28;20025;-76
2023/12/31 10:39:25;;;;;;;4.30;1.75;;;;;;;;;;5044713;28;20038;-77
2023/12/31 10:41:54;;;;;;;2.70;1.80;;;;;;;;;;5032192;28;20070;-78
2023/12/31 10:44:20;;;;;;;7.85;2.22;;;;;;;;;;5030293;28;20038;-76
2023/12/31 10:46:48;;;;;;;4.35;1.77;;;;;;;;;;5027546;28;20032;-75
2023/12/31 10:49:15;;;;;;;2.75;2.17;;;;;;;;;;5012638;28;20384;-75
2023/12/31 10:51:42;;;;;;;3.40;1.70;;;;;;;;;;5045601;28;20025;-76
2023/12/31 10:54:11;;;;;;;4.07;1.85;;;;;;;;;;5031411;28;20028;-76
2023/12/31 10:56:38;;;;;;;3.00;1.60;;;;;;;;;;5031092;28;20662;-78
2023/12/31 10:59:05;;;;;;;5.07;1.80;;;;;;;;;;5028641;28;20025;-78
2023/12/31 11:01:31;;;;;;;4.03;1.83;;;;;;;;;;5031360;28;20022;-78
2023/12/31 11:03:58;;;;;;;4.53;2.03;;;;;;;;;;5014561;28;21682;-77
2023/12/31 11:06:26;;;;;;;5.90;1.90;;;;;;;;;;5027920;28;20029;-76
2023/12/31 11:08:54;;;;;;;3.42;2.05;;;;;;;;;;5028240;28;20044;-75
2023/12/31 11:11:20;;;;;;;5.28;1.80;;;;;;;;;;5030501;28;20029;-76
2023/12/31 11:13:49;;;;;;;3.33;1.77;;;;;;;;;;5028413;28;20467;-77
2023/12/31 11:16:34;;;;;;;2.58;1.50;;;;;;;;;;5024994;28;20403;-76
2023/12/31 11:19:23;;;;;;;3.25;1.50;;;;;;;;;;5031720;28;20033;-76
2023/12/31 11:22:14;;;;;;;2.83;1.30;;;;;;;;;;5022977;28;20436;-77
2023/12/31 11:24:40;;;;;;;6.53;2.13;;;;;;;;;;5021664;28;20022;-75
2023/12/31 11:27:07;;;;;;;3.55;1.02;;;;;;;;;;5019126;28;20022;-76
2023/12/31 11:29:33;;;;;;;2.97;1.52;;;;;;;;;;5024734;28;20033;-77
2023/12/31 11:32:03;;;;;;;5.85;0.90;;;;;;;;;;5018836;28;20502;-77
2023/12/31 11:34:35;;;;;;;2.15;0.98;;;;;;;;;;5016623;28;20025;-78
2023/12/31 11:37:01;;;;;;;6.32;1.35;;;;;;;;;;5025400;28;20064;-77
2023/12/31 11:39:27;;;;;;;3.85;1.40;;;;;;;;;;5030034;28;20021;-77
2023/12/31 11:41:59;;;;;;;7.75;1.35;;;;;;;;;;5021777;28;20041;-77
2023/12/31 11:44:38;;;;;;;7.25;1.48;;;;;;;;;;5028320;28;20388;-77
2023/12/31 11:47:12;;;;;;;2.05;1.15;;;;;;;;;;5018532;28;20116;-77
2023/12/31 11:49:40;;;;;;;4.30;1.10;;;;;;;;;;5021948;28;20037;-76
2023/12/31 11:52:08;;;;;;;6.30;1.50;;;;;;;;;;5027176;28;20112;-77
2023/12/31 11:54:34;;;;;;;5.68;1.50;;;;;;;;;;5026247;28;20022;-76
2023/12/31 11:57:01;;;;;;;7.93;1.85;;;;;;;;;;5022972;28;20037;-76
2023/12/31 11:59:28;;;;;;;5.05;1.90;;;;;;;;;;5029638;28;20030;-75
2023/12/31 12:01:54;;;;;;;4.97;1.75;;;;;;;;;;5022243;28;20048;-77
2023/12/31 12:04:21;;;;;;;5.00;1.52;;;;;;;;;;5040027;28;20113;-75
2023/12/31 12:06:47;;;;;;;8.45;2.00;;;;;;;;;;5014842;28;20030;-76
2023/12/31 12:09:13;;;;;;;4.78;2.05;;;;;;;;;;5023260;28;20050;-76
2023/12/31 12:11:43;;;;;;;7.28;1.48;;;;;;;;;;5027469;28;20164;-77
2023/12/31 12:14:11;;;;;;;8.07;1.83;;;;;;;;;;5028341;28;20085;-76
2023/12/31 12:16:39;;;;;;;9.65;1.70;;;;;;;;;;5028271;28;20067;-77
2023/12/31 12:19:06;;;;;;;9.10;1.92;;;;;;;;;;5030742;28;20026;-76
2023/12/31 12:21:35;;;;;;;9.63;2.20;;;;;;;;;;5019874;28;20108;-75
2023/12/31 12:24:04;;;;;;;7.80;2.20;;;;;;;;;;5012810;28;20034;-76
2023/12/31 12:26:30;;;;;;;10.05;2.45;;;;;;;;;;5019248;28;20374;-78
2023/12/31 12:28:56;;;;;;;7.72;2.05;;;;;;;;;;5018706;28;20205;-76
2023/12/31 12:31:26;;;;;;;6.65;1.83;;;;;;;;;;5028485;28;20080;-77
2023/12/31 12:33:53;;;;;;;11.30;2.75;;;;;;;;;;5046507;28;20492;-75
2023/12/31 12:36:20;;;;;;;9.63;2.95;;;;;;;;;;5025234;28;20081;-76
2023/12/31 12:38:48;;;;;;;8.50;1.95;;;;;;;;;;5030774;28;20030;-76
2023/12/31 12:41:24;;;;;;;6.47;1.50;;;;;;;;;;5028295;28;20079;-76
2023/12/31 12:43:51;;;;;;;5.95;1.60;;;;;;;;;;5026457;28;20026;-76
2023/12/31 12:46:17;;;;;;;13.43;2.53;;;;;;;;;;5035146;28;20032;-79
2023/12/31 12:48:51;;;;;;;7.20;2.00;;;;;;;;;;5037026;28;20034;-75
2023/12/31 12:51:17;;;;;;;8.52;1.60;;;;;;;;;;5025675;28;20025;-75
2023/12/31 12:53:43;;;;;;;11.32;2.10;;;;;;;;;;5023978;28;20033;-77
2023/12/31 12:56:10;;;;;;;7.05;1.65;;;;;;;;;;5026296;28;20139;-78
2023/12/31 12:58:37;;;;;;;8.73;1.80;;;;;;;;;;5025292;28;20056;-77
2023/12/31 13:01:03;;;;;;;8.43;2.33;;;;;;;;;;5022665;28;20031;-76
2023/12/31 13:03:30;;;;;;;7.68;2.00;;;;;;;;;;5016621;28;20029;-76
2023/12/31 13:05:58;;;;;;;10.38;2.10;;;;;;;;;;5009243;28;20132;-77
2023/12/31 13:08:24;;;;;;;7.18;2.38;;;;;;;;;;5022535;28;20414;-76
2023/12/31 13:10:51;;;;;;;7.20;1.75;;;;;;;;;;5018315;28;20097;-76
2023/12/31 13:13:17;;;;;;;11.20;2.15;;;;;;;;;;5025985;28;20383;-75
2023/12/31 13:15:44;;;;;;;10.20;2.15;;;;;;;;;;5027203;28;20231;-75
2023/12/31 13:18:14;;;;;;;11.00;2.60;;;;;;;;;;5039988;28;20025;-75
2023/12/31 13:20:42;;;;;;;7.15;1.60;;;;;;;;;;5005879;28;20057;-76
2023/12/31 13:23:08;;;;;;;12.18;1.95;;;;;;;;;;5023559;28;20021;-78
2023/12/31 13:25:35;;;;;;;11.07;2.42;;;;;;;;;;5021180;28;20031;-77
2023/12/31 13:28:01;;;;;;;9.98;2.38;;;;;;;;;;5035858;28;20483;-77
2023/12/31 13:30:27;;;;;;;11.88;2.70;;;;;;;;;;5026812;28;20026;-78
2023/12/31 13:32:53;;;;;;;11.18;2.40;;;;;;;;;;5026999;28;20056;-77
2023/12/31 13:35:19;;;;;;;8.63;2.20;;;;;;;;;;5038870;28;20045;-76
2023/12/31 13:37:45;;;;;;;19.52;2.58;;;;;;;;;;5024251;28;20061;-76
2023/12/31 13:40:12;;;;;;;9.60;2.17;;;;;;;;;;5024958;28;20160;-76
2023/12/31 13:42:38;;;;;;;17.05;2.22;;;;;;;;;;5024199;28;20064;-76
2023/12/31 13:45:05;;;;;;;10.57;2.78;;;;;;;;;;5023966;28;20164;-77
2023/12/31 13:47:31;;;;;;;8.68;2.10;;;;;;;;;;5026364;28;20056;-76
2023/12/31 13:49:57;;;;;;;8.15;1.90;;;;;;;;;;5026251;28;20060;-76
2023/12/31 13:52:24;;;;;;;10.38;1.98;;;;;;;;;;5026022;28;20463;-76
2023/12/31 13:54:50;;;;;;;8.35;3.10;;;;;;;;;;4991228;28;20091;-76
2023/12/31 13:57:17;;;;;;;11.48;2.50;;;;;;;;;;5024889;28;20074;-75
2023/12/31 13:59:43;;;;;;;8.20;2.30;;;;;;;;;;5023747;28;20123;-76
2023/12/31 14:02:09;;;;;;;10.45;3.20;;;;;;;;;;5023305;28;20048;-76
2023/12/31 14:04:35;;;;;;;7.68;2.63;;;;;;;;;;5025329;28;20030;-77
2023/12/31 14:07:01;;;;;;;8.35;2.10;;;;;;;;;;5024028;28;20092;-77
2023/12/31 14:09:28;;;;;;;10.60;2.75;;;;;;;;;;5023882;28;20042;-77
2023/12/31 14:11:54;;;;;;;12.38;2.38;;;;;;;;;;5022990;28;20485;-76
2023/12/31 14:14:22;;;;;;;11.07;2.38;;;;;;;;;;5023747;28;20108;-76
2023/12/31 14:16:48;;;;;;;10.75;2.22;;;;;;;;;;5021931;28;20036;-77
2023/12/31 14:19:14;;;;;;;10.27;2.63;;;;;;;;;;5024079;28;20060;-76
2023/12/31 14:21:41;;;;;;;11.32;2.75;;;;;;;;;;5027025;28;20040;-76
2023/12/31 14:24:08;;;;;;;11.63;2.70;;;;;;;;;;5007070;28;20040;-76
2023/12/31 14:26:34;;;;;;;9.35;2.50;;;;;;;;;;5025277;28;20183;-77
2023/12/31 14:29:00;;;;;;;8.82;2.58;;;;;;;;;;5006874;28;20037;-78
2023/12/31 14:31:27;;;;;;;10.73;2.50;;;;;;;;;;5022587;28;20107;-75
2023/12/31 14:33:53;;;;;;;11.85;2.78;;;;;;;;;;5022067;28;20187;-76
2023/12/31 14:36:19;;;;;;;16.45;3.78;;;;;;;;;;5022498;28;20033;-77
2023/12/31 14:38:46;;;;;;;11.35;3.10;;;;;;;;;;5023424;28;20029;-74